Time,TemperatureF,DewpointF,PressureIn,WindDirection,WindDirectionDegrees,WindSpeedMPH,WindSpeedGustMPH,Humidity,HourlyPrecipIn,Conditions,Clouds,dailyrainin,SoftwareType,DateUTC
2013-09-09 00:05:00,58.1,58.1,30.03,NNE,27,0.0,0.0,100,0.00,,,0.00,Wunderground v.1.15,2013-09-09 04:05:00,
2013-09-09 00:15:00,57.6,57.6,30.03,NNE,26,2.0,2.0,100,0.00,,,0.00,Wunderground v.1.15,2013-09-09 04:15:00,
2013-09-09 00:20:00,57.5,57.5,30.03,NNE,26,2.0,2.0,100,0.00,,,0.00,Wunderground v.1.15,2013-09-09 04:20:00,
2013-09-09 00:25:00,57.5,57.5,30.03,NNE,26,2.0,2.0,100,0.00,,,0.00,Wunderground v.1.15,2013-09-09 04:25:00,
2013-09-09 00:35:00,57.3,57.3,30.03,NNE,20,2.0,2.0,100,0.00,,,0.00,Wunderground v.1.15,2013-09-09 04:35:00,
2013-09-09 00:40:00,57.3,57.3,30.03,NNE,20,2.0,2.0,100,0.00,,,0.00,Wunderground v.1.15,2013-09-09 04:40:00,
2013-09-09 00:50:00,57.0,57.0,30.04,NNE,20,1.0,1.0,100,0.00,,,0.00,Wunderground v.1.15,2013-09-09 04:50:00,
2013-09-09 00:55:00,56.9,56.9,30.04,NNE,20,1.0,1.0,100,0.00,,,0.00,Wunderground v.1.15,2013-09-09 04:55:00,
2013-09-09 01:05:00,56.6,56.6,30.05,NNE,20,2.0,2.0,100,0.00,,,0.00,Wunderground v.1.15,2013-09-09 05:05:00,
2013-09-09 01:10:00,56.5,56.5,30.05,NNE,20,1.0,1.0,100,0.00,,,0.00,Wunderground v.1.15,2013-09-09 05:10:00,
2013-09-09 01:20:00,56.2,56.2,30.05,NNE,20,2.0,2.0,100,0.00,,,0.00,Wunderground v.1.15,2013-09-09 05:20:00,
2013-09-09 01:25:00,55.9,55.9,30.05,NNE,20,2.0,2.0,100,0.00,,,0.00,Wunderground v.1.15,2013-09-09 05:25:00,
2013-09-09 01:35:00,55.6,55.6,30.05,NNE,20,1.0,1.0,100,0.00,,,0.00,Wunderground v.1.15,2013-09-09 05:35:00,
2013-09-09 01:40:00,55.3,55.3,30.05,NNE,20,0.0,0.0,100,0.00,,,0.00,Wunderground v.1.15,2013-09-09 05:40:00,
2013-09-09 01:49:00,55.0,55.0,30.05,NNE,20,0.0,1.0,100,0.00,,,0.00,Wunderground v.1.15,2013-09-09 05:49:00,
2013-09-09 01:55:00,55.0,55.0,30.05,NNE,24,1.0,3.0,100,0.00,,,0.00,Wunderground v.1.15,2013-09-09 05:55:00,
2013-09-09 02:00:00,55.1,55.1,30.05,NNE,24,1.0,1.0,100,0.00,,,0.00,Wunderground v.1.15,2013-09-09 06:00:00,
2013-09-09 02:10:00,55.1,55.1,30.05,NNE,21,2.0,3.0,100,0.00,,,0.00,Wunderground v.1.15,2013-09-09 06:10:00,
2013-09-09 02:20:00,55.1,55.1,30.05,NNE,21,1.0,1.0,100,0.00,,,0.00,Wunderground v.1.15,2013-09-09 06:20:00,
2013-09-09 02:25:00,55.1,55.1,30.05,NNE,23,0.0,1.0,100,0.00,,,0.00,Wunderground v.1.15,2013-09-09 06:25:00,
2013-09-09 02:35:00,54.7,54.7,30.05,NNE,21,0.0,1.0,100,0.00,,,0.00,Wunderground v.1.15,2013-09-09 06:35:00,
2013-09-09 02:40:00,54.5,54.5,30.05,NNE,23,0.0,0.0,100,0.00,,,0.00,Wunderground v.1.15,2013-09-09 06:40:00,
2013-09-09 02:50:00,54.5,54.5,30.06,NNE,23,0.0,0.0,100,0.00,,,0.00,Wunderground v.1.15,2013-09-09 06:50:00,
2013-09-09 02:55:00,54.7,54.7,30.06,NNE,23,0.0,0.0,100,0.00,,,0.00,Wunderground v.1.15,2013-09-09 06:55:00,
2013-09-09 03:05:00,54.5,54.5,30.06,NNE,23,0.0,0.0,100,0.00,,,0.00,Wunderground v.1.15,2013-09-09 07:05:00,
2013-09-09 03:10:00,54.5,54.5,30.06,NNE,23,0.0,0.0,100,0.00,,,0.00,Wunderground v.1.15,2013-09-09 07:10:00,
2013-09-09 03:20:00,54.4,54.4,30.07,NNE,23,0.0,0.0,100,0.00,,,0.00,Wunderground v.1.15,2013-09-09 07:20:00,
2013-09-09 03:25:00,54.2,54.2,30.07,NNE,23,0.0,0.0,100,0.00,,,0.00,Wunderground v.1.15,2013-09-09 07:25:00,
2013-09-09 03:35:00,54.1,54.1,30.07,NNE,23,0.0,0.0,100,0.00,,,0.00,Wunderground v.1.15,2013-09-09 07:35:00,
2013-09-09 03:40:00,53.9,53.9,30.07,NNE,23,0.0,1.0,100,0.00,,,0.00,Wunderground v.1.15,2013-09-09 07:40:00,
2013-09-09 03:50:00,53.8,53.8,30.08,NNE,23,0.0,0.0,100,0.00,,,0.00,Wunderground v.1.15,2013-09-09 07:50:00,
2013-09-09 03:55:00,53.6,53.6,30.08,NNE,23,0.0,0.0,100,0.00,,,0.00,Wunderground v.1.15,2013-09-09 07:55:00,
2013-09-09 04:05:00,53.5,53.5,30.09,NNE,23,1.0,1.0,100,0.00,,,0.00,Wunderground v.1.15,2013-09-09 08:05:00,
2013-09-09 04:10:00,53.3,53.3,30.09,NNE,23,0.0,0.0,100,0.00,,,0.00,Wunderground v.1.15,2013-09-09 08:10:00,
2013-09-09 04:20:00,53.2,53.2,30.09,NNE,23,0.0,2.0,100,0.00,,,0.00,Wunderground v.1.15,2013-09-09 08:20:00,
2013-09-09 04:25:00,53.1,53.1,30.09,NNE,23,0.0,2.0,100,0.00,,,0.00,Wunderground v.1.15,2013-09-09 08:25:00,
2013-09-09 04:35:00,52.8,52.8,30.10,NNE,23,0.0,0.0,100,0.00,,,0.00,Wunderground v.1.15,2013-09-09 08:35:00,
2013-09-09 04:40:00,52.6,52.6,30.10,NNE,23,0.0,0.0,100,0.00,,,0.00,Wunderground v.1.15,2013-09-09 08:40:00,
2013-09-09 04:50:00,52.3,52.3,30.10,NNE,23,0.0,0.0,100,0.00,,,0.00,Wunderground v.1.15,2013-09-09 08:50:00,
2013-09-09 04:55:00,52.2,52.2,30.10,NNE,23,1.0,1.0,100,0.00,,,0.00,Wunderground v.1.15,2013-09-09 08:55:00,
2013-09-09 05:05:00,51.9,51.9,30.11,NNE,23,0.0,1.0,100,0.00,,,0.00,Wunderground v.1.15,2013-09-09 09:05:00,
2013-09-09 05:10:00,51.7,51.7,30.11,NNE,23,0.0,0.0,100,0.00,,,0.00,Wunderground v.1.15,2013-09-09 09:10:00,
2013-09-09 05:20:00,51.3,51.3,30.11,NNE,23,0.0,0.0,100,0.00,,,0.00,Wunderground v.1.15,2013-09-09 09:20:00,
2013-09-09 05:25:00,51.1,51.1,30.11,NNE,23,0.0,0.0,100,0.00,,,0.00,Wunderground v.1.15,2013-09-09 09:25:00,
2013-09-09 05:35:00,50.8,50.8,30.12,NNE,23,0.0,0.0,100,0.00,,,0.00,Wunderground v.1.15,2013-09-09 09:35:00,
2013-09-09 05:40:00,50.8,50.8,30.12,NNE,23,0.0,0.0,100,0.00,,,0.00,Wunderground v.1.15,2013-09-09 09:40:00,
2013-09-09 05:50:00,50.7,50.7,30.12,NNE,23,0.0,0.0,100,0.00,,,0.00,Wunderground v.1.15,2013-09-09 09:50:00,
2013-09-09 05:55:00,50.7,50.7,30.12,NNE,23,0.0,0.0,100,0.00,,,0.00,Wunderground v.1.15,2013-09-09 09:55:00,
2013-09-09 06:05:00,50.5,50.5,30.12,NNE,23,0.0,0.0,100,0.00,,,0.00,Wunderground v.1.15,2013-09-09 10:05:00,
2013-09-09 06:10:00,50.5,50.5,30.12,NNE,23,0.0,0.0,100,0.00,,,0.00,Wunderground v.1.15,2013-09-09 10:10:00,
2013-09-09 06:20:00,50.5,50.5,30.13,NNE,23,1.0,1.0,100,0.00,,,0.00,Wunderground v.1.15,2013-09-09 10:20:00,
2013-09-09 06:25:00,50.7,50.7,30.13,NNE,23,0.0,1.0,100,0.00,,,0.00,Wunderground v.1.15,2013-09-09 10:25:00,
2013-09-09 06:35:00,51.1,51.1,30.15,NNE,23,0.0,0.0,100,0.00,,,0.00,Wunderground v.1.15,2013-09-09 10:35:00,
2013-09-09 06:40:00,51.7,51.7,30.15,NNE,23,0.0,0.0,100,0.00,,,0.00,Wunderground v.1.15,2013-09-09 10:40:00,
2013-09-09 06:50:00,52.5,52.5,30.15,NNE,23,0.0,0.0,100,0.00,,,0.00,Wunderground v.1.15,2013-09-09 10:50:00,
2013-09-09 06:55:00,53.2,53.2,30.15,NNE,23,0.0,0.0,100,0.00,,,0.00,Wunderground v.1.15,2013-09-09 10:55:00,
2013-09-09 07:05:00,54.2,54.2,30.15,NNE,23,2.0,3.0,100,0.00,,,0.00,Wunderground v.1.15,2013-09-09 11:05:00,
2013-09-09 07:10:00,55.0,55.0,30.15,NNE,23,2.0,2.0,100,0.00,,,0.00,Wunderground v.1.15,2013-09-09 11:10:00,
2013-09-09 07:20:00,56.2,56.2,30.16,NNE,23,2.0,2.0,100,0.00,,,0.00,Wunderground v.1.15,2013-09-09 11:20:00,
2013-09-09 07:25:00,57.2,57.2,30.16,NNE,23,1.0,2.0,100,0.00,,,0.00,Wunderground v.1.15,2013-09-09 11:25:00,
2013-09-09 07:35:00,58.9,58.9,30.17,NNE,23,0.0,3.0,100,0.00,,,0.00,Wunderground v.1.15,2013-09-09 11:35:00,
2013-09-09 07:40:00,59.8,59.8,30.17,NNE,21,1.0,1.0,100,0.00,,,0.00,Wunderground v.1.15,2013-09-09 11:40:00,
2013-09-09 07:50:00,61.0,61.0,30.17,NNE,21,1.0,1.0,100,0.00,,,0.00,Wunderground v.1.15,2013-09-09 11:50:00,
2013-09-09 07:55:00,62.0,62.0,30.17,NNE,21,1.0,1.0,100,0.00,,,0.00,Wunderground v.1.15,2013-09-09 11:55:00,
2013-09-09 08:05:00,62.4,62.4,30.17,NNE,23,1.0,2.0,100,0.00,,,0.00,Wunderground v.1.15,2013-09-09 12:05:00,
2013-09-09 08:10:00,63.1,63.1,30.17,NNE,21,0.0,0.0,100,0.00,,,0.00,Wunderground v.1.15,2013-09-09 12:10:00,
2013-09-09 08:20:00,64.5,64.5,30.17,NNE,21,0.0,0.0,100,0.00,,,0.00,Wunderground v.1.15,2013-09-09 12:20:00,
2013-09-09 08:25:00,65.0,65.0,30.17,NNE,21,0.0,0.0,100,0.00,,,0.00,Wunderground v.1.15,2013-09-09 12:25:00,
2013-09-09 08:35:00,64.2,64.2,30.18,NE,45,3.0,3.0,100,0.00,,,0.00,Wunderground v.1.15,2013-09-09 12:35:00,
2013-09-09 08:40:00,64.2,64.2,30.18,NE,45,2.0,2.0,100,0.00,,,0.00,Wunderground v.1.15,2013-09-09 12:40:00,
2013-09-09 08:50:00,64.5,64.5,30.18,NE,45,1.0,5.0,100,0.00,,,0.00,Wunderground v.1.15,2013-09-09 12:50:00,
2013-09-09 08:55:00,64.5,64.5,30.18,NE,44,1.0,5.0,100,0.00,,,0.00,Wunderground v.1.15,2013-09-09 12:55:00,
2013-09-09 09:05:00,64.5,64.5,30.18,NE,51,1.0,1.0,100,0.00,,,0.00,Wunderground v.1.15,2013-09-09 13:05:00,
2013-09-09 09:10:00,64.5,64.5,30.18,NE,51,1.0,1.0,100,0.00,,,0.00,Wunderground v.1.15,2013-09-09 13:10:00,
2013-09-09 09:20:00,65.2,65.2,30.19,NE,51,1.0,1.0,100,0.00,,,0.00,Wunderground v.1.15,2013-09-09 13:20:00,
2013-09-09 09:25:00,65.5,65.5,30.19,NE,48,1.0,2.0,100,0.00,,,0.00,Wunderground v.1.15,2013-09-09 13:25:00,
2013-09-09 09:35:00,65.2,65.2,30.19,NE,51,2.0,2.0,100,0.00,,,0.00,Wunderground v.1.15,2013-09-09 13:35:00,
2013-09-09 09:40:00,65.5,65.5,30.19,NE,51,1.0,1.0,100,0.00,,,0.00,Wunderground v.1.15,2013-09-09 13:40:00,
2013-09-09 09:50:00,65.8,65.8,30.19,ENE,59,1.0,7.0,100,0.00,,,0.00,Wunderground v.1.15,2013-09-09 13:50:00,
2013-09-09 09:55:00,65.0,-99.9,30.19,ENE,59,2.0,7.0,255,0.00,,,0.00,Wunderground v.1.15,2013-09-09 13:55:00,
2013-09-09 10:05:00,65.2,65.2,30.20,ENE,59,1.0,2.0,100,0.00,,,0.00,Wunderground v.1.15,2013-09-09 14:05:00,
2013-09-09 10:10:00,65.2,-99.9,30.20,ENE,59,1.0,1.0,255,0.00,,,0.00,Wunderground v.1.15,2013-09-09 14:10:00,
2013-09-09 10:20:00,66.1,66.1,30.20,ENE,61,1.0,8.0,100,0.00,,,0.00,Wunderground v.1.15,2013-09-09 14:20:00,
2013-09-09 10:25:00,65.6,65.6,30.20,ENE,61,2.0,8.0,100,0.00,,,0.00,Wunderground v.1.15,2013-09-09 14:25:00,
2013-09-09 10:35:00,65.6,65.6,30.19,ENE,62,2.0,2.0,100,0.00,,,0.00,Wunderground v.1.15,2013-09-09 14:35:00,
2013-09-09 10:40:00,65.0,65.0,30.19,ENE,62,2.0,3.0,100,0.00,,,0.00,Wunderground v.1.15,2013-09-09 14:40:00,
2013-09-09 10:50:00,64.7,64.7,30.20,ENE,68,2.0,6.0,100,0.00,,,0.00,Wunderground v.1.15,2013-09-09 14:50:00,
2013-09-09 10:55:00,65.0,65.0,30.20,ENE,69,1.0,6.0,100,0.00,,,0.00,Wunderground v.1.15,2013-09-09 14:55:00,
2013-09-09 11:05:00,64.7,64.7,30.20,ESE,117,2.0,2.0,100,0.00,,,0.00,Wunderground v.1.15,2013-09-09 15:05:00,
2013-09-09 11:10:00,63.5,63.5,30.20,SE,141,5.0,5.0,100,0.00,,,0.00,Wunderground v.1.15,2013-09-09 15:10:00,
2013-09-09 11:20:00,63.7,63.7,30.20,SE,143,4.0,4.0,100,0.00,,,0.00,Wunderground v.1.15,2013-09-09 15:20:00,
2013-09-09 11:25:00,64.5,64.5,30.20,SE,143,3.0,4.0,100,0.00,,,0.00,Wunderground v.1.15,2013-09-09 15:25:00,
2013-09-09 11:35:00,64.3,64.3,30.19,SE,143,3.0,7.0,100,0.00,,,0.00,Wunderground v.1.15,2013-09-09 15:35:00,
2013-09-09 11:40:00,64.7,64.7,30.19,SE,143,2.0,3.0,100,0.00,,,0.00,Wunderground v.1.15,2013-09-09 15:40:00,
2013-09-09 11:50:00,64.8,64.8,30.19,SE,143,3.0,6.0,100,0.00,,,0.00,Wunderground v.1.15,2013-09-09 15:50:00,
2013-09-09 11:55:00,64.2,64.2,30.19,SE,143,5.0,8.0,100,0.00,,,0.00,Wunderground v.1.15,2013-09-09 15:55:00,
2013-09-09 12:05:00,63.9,63.9,30.18,SE,143,5.0,6.0,100,0.00,,,0.00,Wunderground v.1.15,2013-09-09 16:05:00,
2013-09-09 12:10:00,63.4,63.4,30.18,SE,144,5.0,5.0,100,0.00,,,0.00,Wunderground v.1.15,2013-09-09 16:10:00,
2013-09-09 12:20:00,63.4,63.4,30.18,SE,144,3.0,3.0,100,0.00,,,0.00,Wunderground v.1.15,2013-09-09 16:20:00,
2013-09-09 12:25:00,63.2,63.2,30.18,SSE,151,5.0,5.0,100,0.00,,,0.00,Wunderground v.1.15,2013-09-09 16:25:00,
2013-09-09 12:35:00,63.5,63.5,30.18,South,175,5.0,6.0,100,0.00,,,0.00,Wunderground v.1.15,2013-09-09 16:35:00,
2013-09-09 12:40:00,63.4,63.4,30.18,South,175,6.0,6.0,100,0.00,,,0.00,Wunderground v.1.15,2013-09-09 16:40:00,
2013-09-09 12:49:00,63.5,63.5,30.18,South,177,6.0,6.0,100,0.00,,,0.00,Wunderground v.1.15,2013-09-09 16:49:00,
2013-09-09 12:55:00,63.7,63.7,30.18,South,177,5.0,6.0,100,0.00,,,0.00,Wunderground v.1.15,2013-09-09 16:55:00,
2013-09-09 13:05:00,63.7,63.7,30.17,South,177,6.0,7.0,100,0.00,,,0.00,Wunderground v.1.15,2013-09-09 17:05:00,
2013-09-09 13:10:00,63.7,63.7,30.17,South,178,7.0,10.0,100,0.00,,,0.00,Wunderground v.1.15,2013-09-09 17:10:00,
2013-09-09 13:20:00,63.2,63.2,30.18,South,188,8.0,8.0,100,0.00,,,0.00,Wunderground v.1.15,2013-09-09 17:20:00,
2013-09-09 13:25:00,63.5,63.5,30.18,SSW,195,7.0,8.0,100,0.00,,,0.00,Wunderground v.1.15,2013-09-09 17:25:00,
2013-09-09 13:35:00,63.4,63.4,30.18,SSW,198,7.0,11.0,100,0.00,,,0.00,Wunderground v.1.15,2013-09-09 17:35:00,
2013-09-09 13:40:00,63.5,63.5,30.18,SSW,203,8.0,8.0,100,0.00,,,0.00,Wunderground v.1.15,2013-09-09 17:40:00,
2013-09-09 13:50:00,63.9,63.9,30.18,SSW,203,5.0,7.0,100,0.00,,,0.00,Wunderground v.1.15,2013-09-09 17:50:00,
2013-09-09 13:55:00,63.5,63.5,30.18,SSW,209,6.0,7.0,100,0.00,,,0.00,Wunderground v.1.15,2013-09-09 17:55:00,
2013-09-09 14:04:00,64.3,64.3,30.17,SSW,209,5.0,7.0,100,0.00,,,0.00,Wunderground v.1.15,2013-09-09 18:04:00,
2013-09-09 14:10:00,64.3,64.3,30.17,SSW,209,5.0,7.0,100,0.00,,,0.00,Wunderground v.1.15,2013-09-09 18:10:00,
2013-09-09 14:20:00,63.7,63.7,30.17,SW,216,7.0,10.0,100,0.00,,,0.00,Wunderground v.1.15,2013-09-09 18:20:00,
2013-09-09 14:25:00,64.0,64.0,30.17,SW,226,7.0,10.0,100,0.00,,,0.00,Wunderground v.1.15,2013-09-09 18:25:00,
2013-09-09 14:35:00,63.4,63.4,30.17,SW,215,7.0,13.0,100,0.00,,,0.00,Wunderground v.1.15,2013-09-09 18:35:00,
2013-09-09 14:40:00,63.4,63.4,30.17,SSW,212,7.0,10.0,100,0.00,,,0.00,Wunderground v.1.15,2013-09-09 18:40:00,
2013-09-09 14:50:00,63.7,63.7,30.16,SW,216,8.0,10.0,100,0.00,,,0.00,Wunderground v.1.15,2013-09-09 18:50:00,
2013-09-09 14:55:00,63.7,63.7,30.16,SW,232,7.0,10.0,100,0.00,,,0.00,Wunderground v.1.15,2013-09-09 18:55:00,
2013-09-09 15:05:00,63.4,63.4,30.16,SW,226,8.0,8.0,100,0.00,,,0.00,Wunderground v.1.15,2013-09-09 19:05:00,
2013-09-09 15:10:00,63.4,63.4,30.16,SW,223,8.0,8.0,100,0.00,,,0.00,Wunderground v.1.15,2013-09-09 19:10:00,
2013-09-09 15:20:00,63.5,63.5,30.16,SW,225,6.0,7.0,100,0.00,,,0.00,Wunderground v.1.15,2013-09-09 19:20:00,
2013-09-09 15:25:00,63.1,63.1,30.16,SW,219,6.0,11.0,100,0.00,,,0.00,Wunderground v.1.15,2013-09-09 19:25:00,
2013-09-09 15:35:00,63.4,63.4,30.17,SSW,208,7.0,11.0,100,0.00,,,0.00,Wunderground v.1.15,2013-09-09 19:35:00,
2013-09-09 15:40:00,63.1,63.1,30.17,SSW,206,7.0,7.0,100,0.00,,,0.00,Wunderground v.1.15,2013-09-09 19:40:00,
2013-09-09 15:50:00,63.7,63.7,30.17,SW,219,6.0,7.0,100,0.00,,,0.00,Wunderground v.1.15,2013-09-09 19:50:00,
2013-09-09 15:55:00,63.1,63.1,30.17,SW,218,6.0,7.0,100,0.00,,,0.00,Wunderground v.1.15,2013-09-09 19:55:00,
2013-09-09 16:05:00,62.7,62.7,30.18,SW,219,7.0,11.0,100,0.00,,,0.00,Wunderground v.1.15,2013-09-09 20:05:00,
2013-09-09 16:10:00,62.7,62.7,30.18,SW,215,7.0,8.0,100,0.00,,,0.00,Wunderground v.1.15,2013-09-09 20:10:00,
2013-09-09 16:20:00,62.6,62.6,30.17,SW,216,6.0,6.0,100,0.00,,,0.00,Wunderground v.1.15,2013-09-09 20:20:00,
2013-09-09 16:25:00,62.6,62.6,30.17,SW,218,6.0,6.0,100,0.00,,,0.00,Wunderground v.1.15,2013-09-09 20:25:00,
2013-09-09 16:35:00,62.6,62.6,30.17,SW,226,6.0,7.0,100,0.00,,,0.00,Wunderground v.1.15,2013-09-09 20:35:00,
2013-09-09 16:40:00,62.6,62.6,30.17,West,277,6.0,6.0,100,0.00,,,0.00,Wunderground v.1.15,2013-09-09 20:40:00,
2013-09-09 16:50:00,62.6,62.6,30.17,WSW,254,6.0,6.0,100,0.00,,,0.00,Wunderground v.1.15,2013-09-09 20:50:00,
2013-09-09 16:55:00,62.6,62.6,30.17,West,260,7.0,7.0,100,0.00,,,0.00,Wunderground v.1.15,2013-09-09 20:55:00,
2013-09-09 17:05:00,62.7,62.7,30.17,West,273,5.0,7.0,100,0.00,,,0.00,Wunderground v.1.15,2013-09-09 21:05:00,
2013-09-09 17:10:00,62.4,62.4,30.17,West,271,6.0,6.0,100,0.00,,,0.00,Wunderground v.1.15,2013-09-09 21:10:00,
2013-09-09 17:19:00,62.4,62.4,30.17,West,266,6.0,6.0,100,0.00,,,0.00,Wunderground v.1.15,2013-09-09 21:19:00,
2013-09-09 17:25:00,62.3,62.3,30.17,West,260,6.0,6.0,100,0.00,,,0.00,Wunderground v.1.15,2013-09-09 21:25:00,
2013-09-09 17:35:00,62.3,62.3,30.17,SW,219,5.0,7.0,100,0.00,,,0.00,Wunderground v.1.15,2013-09-09 21:35:00,
2013-09-09 17:40:00,62.1,62.1,30.17,WSW,250,6.0,8.0,100,0.00,,,0.00,Wunderground v.1.15,2013-09-09 21:40:00,
2013-09-09 17:50:00,62.0,62.0,30.16,West,261,6.0,6.0,100,0.00,,,0.00,Wunderground v.1.15,2013-09-09 21:50:00,
2013-09-09 17:55:00,61.8,61.8,30.16,WSW,246,7.0,7.0,100,0.00,,,0.00,Wunderground v.1.15,2013-09-09 21:55:00,
2013-09-09 18:05:00,61.6,61.6,30.15,SSW,210,6.0,6.0,100,0.00,,,0.00,Wunderground v.1.15,2013-09-09 22:05:00,
2013-09-09 18:10:00,61.6,61.6,30.15,WSW,246,6.0,6.0,100,0.00,,,0.00,Wunderground v.1.15,2013-09-09 22:10:00,
2013-09-09 18:20:00,61.6,61.6,30.15,WNW,285,6.0,7.0,100,0.00,,,0.00,Wunderground v.1.15,2013-09-09 22:20:00,
2013-09-09 18:25:00,61.5,61.5,30.15,SW,236,6.0,7.0,100,0.00,,,0.00,Wunderground v.1.15,2013-09-09 22:25:00,
2013-09-09 18:35:00,61.5,61.5,30.16,West,261,5.0,8.0,100,0.00,,,0.00,Wunderground v.1.15,2013-09-09 22:35:00,
2013-09-09 18:40:00,61.3,61.3,30.16,SW,225,5.0,6.0,100,0.00,,,0.00,Wunderground v.1.15,2013-09-09 22:40:00,
2013-09-09 18:50:00,61.2,61.2,30.16,West,260,6.0,6.0,100,0.00,,,0.00,Wunderground v.1.15,2013-09-09 22:50:00,
2013-09-09 18:55:00,61.2,61.2,30.16,WSW,254,6.0,6.0,100,0.00,,,0.00,Wunderground v.1.15,2013-09-09 22:55:00,
2013-09-09 19:05:00,61.2,61.2,30.15,WSW,250,5.0,6.0,100,0.00,,,0.00,Wunderground v.1.15,2013-09-09 23:05:00,
2013-09-09 19:10:00,61.0,61.0,30.15,West,266,6.0,6.0,100,0.00,,,0.00,Wunderground v.1.15,2013-09-09 23:10:00,
2013-09-09 19:20:00,61.0,61.0,30.15,SW,232,5.0,6.0,100,0.00,,,0.00,Wunderground v.1.15,2013-09-09 23:20:00,
2013-09-09 19:25:00,61.0,61.0,30.15,West,263,5.0,9.0,100,0.00,,,0.00,Wunderground v.1.15,2013-09-09 23:25:00,
2013-09-09 19:35:00,60.9,60.9,30.16,West,260,6.0,8.0,100,0.00,,,0.00,Wunderground v.1.15,2013-09-09 23:35:00,
2013-09-09 19:40:00,60.9,60.9,30.16,SW,234,6.0,8.0,100,0.00,,,0.00,Wunderground v.1.15,2013-09-09 23:40:00,
2013-09-09 19:49:00,60.9,60.9,30.16,WSW,251,6.0,8.0,100,0.00,,,0.00,Wunderground v.1.15,2013-09-09 23:49:00,
2013-09-09 19:55:00,61.0,61.0,30.16,WSW,258,5.0,8.0,100,0.00,,,0.00,Wunderground v.1.15,2013-09-09 23:55:00,
2013-09-09 20:05:00,60.9,60.9,30.16,SW,232,5.0,5.0,100,0.00,,,0.00,Wunderground v.1.15,2013-09-10 00:05:00,
2013-09-09 20:10:00,61.0,61.0,30.16,SW,223,5.0,5.0,100,0.00,,,0.00,Wunderground v.1.15,2013-09-10 00:10:00,
2013-09-09 20:20:00,60.9,60.9,30.16,SW,226,5.0,5.0,100,0.00,,,0.00,Wunderground v.1.15,2013-09-10 00:20:00,
2013-09-09 20:25:00,61.0,61.0,30.16,SW,230,6.0,6.0,100,0.00,,,0.00,Wunderground v.1.15,2013-09-10 00:25:00,
2013-09-09 20:35:00,61.0,61.0,30.16,WSW,240,5.0,5.0,100,0.00,,,0.00,Wunderground v.1.15,2013-09-10 00:35:00,
2013-09-09 20:40:00,61.0,61.0,30.16,SW,232,5.0,5.0,100,0.00,,,0.00,Wunderground v.1.15,2013-09-10 00:40:00,
2013-09-09 20:50:00,60.7,60.7,30.16,SW,233,4.0,4.0,100,0.00,,,0.00,Wunderground v.1.15,2013-09-10 00:50:00,
2013-09-09 20:55:00,60.7,60.7,30.16,SW,232,4.0,5.0,100,0.00,,,0.00,Wunderground v.1.15,2013-09-10 00:55:00,
2013-09-09 21:05:00,60.9,60.9,30.16,SW,215,5.0,7.0,100,0.00,,,0.00,Wunderground v.1.15,2013-09-10 01:05:00,
2013-09-09 21:10:00,61.0,61.0,30.16,SSW,203,6.0,8.0,100,0.00,,,0.00,Wunderground v.1.15,2013-09-10 01:10:00,
2013-09-09 21:20:00,61.0,61.0,30.16,SW,229,5.0,6.0,100,0.00,,,0.00,Wunderground v.1.15,2013-09-10 01:20:00,
2013-09-09 21:25:00,61.0,61.0,30.16,SW,236,5.0,6.0,100,0.00,,,0.00,Wunderground v.1.15,2013-09-10 01:25:00,
2013-09-09 21:35:00,60.9,60.9,30.16,SW,232,5.0,7.0,100,0.00,,,0.00,Wunderground v.1.15,2013-09-10 01:35:00,
2013-09-09 21:40:00,61.0,61.0,30.16,WSW,237,6.0,6.0,100,0.00,,,0.00,Wunderground v.1.15,2013-09-10 01:40:00,
2013-09-09 21:50:00,61.2,61.2,30.16,WSW,244,6.0,6.0,100,0.00,,,0.00,Wunderground v.1.15,2013-09-10 01:50:00,
2013-09-09 21:55:00,61.2,61.2,30.16,SW,229,6.0,6.0,100,0.00,,,0.00,Wunderground v.1.15,2013-09-10 01:55:00,
2013-09-09 22:05:00,61.3,61.3,30.16,WSW,251,6.0,7.0,100,0.00,,,0.00,Wunderground v.1.15,2013-09-10 02:05:00,
2013-09-09 22:10:00,61.3,61.3,30.16,SW,223,6.0,7.0,100,0.00,,,0.00,Wunderground v.1.15,2013-09-10 02:10:00,
2013-09-09 22:20:00,61.5,61.5,30.16,SW,229,7.0,7.0,100,0.00,,,0.00,Wunderground v.1.15,2013-09-10 02:20:00,
2013-09-09 22:25:00,61.5,61.5,30.16,SW,236,6.0,7.0,100,0.00,,,0.00,Wunderground v.1.15,2013-09-10 02:25:00,
2013-09-09 22:35:00,61.3,61.3,30.15,WSW,251,5.0,7.0,100,0.00,,,0.00,Wunderground v.1.15,2013-09-10 02:35:00,
2013-09-09 22:40:00,61.3,61.3,30.15,SW,233,6.0,11.0,100,0.00,,,0.00,Wunderground v.1.15,2013-09-10 02:40:00,
2013-09-09 22:49:00,61.6,61.6,30.15,SW,219,6.0,6.0,100,0.00,,,0.00,Wunderground v.1.15,2013-09-10 02:49:00,
2013-09-09 22:55:00,61.6,61.6,30.15,SW,226,6.0,6.0,100,0.00,,,0.00,Wunderground v.1.15,2013-09-10 02:55:00,
2013-09-09 23:05:00,61.8,61.8,30.16,SSW,206,6.0,6.0,100,0.00,,,0.00,Wunderground v.1.15,2013-09-10 03:05:00,
2013-09-09 23:10:00,62.0,62.0,30.16,SW,232,7.0,7.0,100,0.00,,,0.00,Wunderground v.1.15,2013-09-10 03:10:00,
2013-09-09 23:20:00,62.1,62.1,30.16,WSW,256,6.0,6.0,100,0.00,,,0.00,Wunderground v.1.15,2013-09-10 03:20:00,
2013-09-09 23:25:00,62.3,62.3,30.16,WSW,239,6.0,6.0,100,0.00,,,0.00,Wunderground v.1.15,2013-09-10 03:25:00,
2013-09-09 23:35:00,62.3,62.3,30.16,SW,223,7.0,11.0,100,0.00,,,0.00,Wunderground v.1.15,2013-09-10 03:35:00,
2013-09-09 23:40:00,62.4,62.4,30.16,West,260,8.0,11.0,100,0.00,,,0.00,Wunderground v.1.15,2013-09-10 03:40:00,
2013-09-09 23:50:00,62.3,62.3,30.16,WSW,246,8.0,8.0,100,0.00,,,0.00,Wunderground v.1.15,2013-09-10 03:50:00,
2013-09-09 23:55:00,62.3,62.3,30.16,WSW,254,8.0,8.0,100,0.00,,,0.00,Wunderground v.1.15,2013-09-10 03:55:00,